Time;durP1;ratioP1;P1;durP2;ratioP2;P2;SDS_P1;SDS_P2;PMS_P1;PMS_P2;Temp;Humidity;BMP_temperature;BMP_pressure;BME280_temperature;BME280_humidity;BME280_pressure;Samples;Min_cycle;Max_cycle;Signal;HPM_P1;HPM_P2
2022/04/23 00:00:34;;;;;;;21.67;16.67;;;11.80;99.90;;;;;;5042571;28;20207;-67
2022/04/23 00:03:03;;;;;;;23.53;16.80;;;11.80;99.90;;;;;;5044966;28;20606;-66
2022/04/23 00:05:31;;;;;;;25.10;15.80;;;11.80;99.90;;;;;;5046966;28;20189;-66
2022/04/23 00:07:59;;;;;;;21.97;16.03;;;11.80;99.90;;;;;;5045302;28;20208;-66
2022/04/23 00:10:28;;;;;;;22.97;16.33;;;11.80;99.90;;;;;;5046095;28;20200;-66
2022/04/23 00:12:59;;;;;;;20.60;15.83;;;11.70;99.90;;;;;;5036096;28;20199;-66
2022/04/23 00:15:28;;;;;;;22.50;16.00;;;11.70;99.90;;;;;;5045092;28;20235;-66
2022/04/23 00:17:57;;;;;;;22.40;16.63;;;11.70;99.90;;;;;;5038122;28;20652;-66
2022/04/23 00:20:29;;;;;;;24.93;16.50;;;11.70;99.90;;;;;;5043450;28;20196;-65
2022/04/23 00:22:59;;;;;;;23.00;17.03;;;11.60;99.90;;;;;;5047368;28;20562;-66
2022/04/23 00:25:28;;;;;;;22.73;17.03;;;11.70;99.90;;;;;;5044902;28;20291;-66
2022/04/23 00:27:57;;;;;;;24.00;16.67;;;11.60;99.90;;;;;;5041108;28;20199;-66
2022/04/23 00:30:26;;;;;;;22.40;15.93;;;11.60;99.90;;;;;;5035971;28;20307;-66
2022/04/23 00:32:58;;;;;;;24.53;16.23;;;11.60;99.90;;;;;;5039288;28;20494;-66
2022/04/23 00:35:27;;;;;;;23.47;17.27;;;11.70;99.90;;;;;;5031081;28;20198;-66
2022/04/23 00:37:56;;;;;;;24.67;16.33;;;11.60;99.90;;;;;;5038104;28;20291;-66
2022/04/23 00:40:25;;;;;;;24.73;16.97;;;11.60;99.90;;;;;;5038140;28;20554;-67
2022/04/23 00:42:55;;;;;;;21.20;15.93;;;11.60;99.90;;;;;;5038429;28;20193;-65
2022/04/23 00:45:26;;;;;;;21.73;16.20;;;11.60;99.90;;;;;;5040378;28;20205;-66
2022/04/23 00:47:55;;;;;;;24.10;16.97;;;11.60;99.90;;;;;;5038421;28;20734;-65
2022/04/23 00:50:24;;;;;;;21.47;16.03;;;11.60;99.90;;;;;;5041695;28;20284;-66
2022/04/23 00:52:54;;;;;;;24.23;16.13;;;11.60;99.90;;;;;;5037145;28;20224;-66
2022/04/23 00:55:23;;;;;;;22.37;16.30;;;11.50;99.90;;;;;;5043358;28;20621;-66
2022/04/23 00:57:52;;;;;;;21.70;16.70;;;11.50;99.90;;;;;;5045142;28;20209;-65
2022/04/23 01:00:21;;;;;;;23.33;16.53;;;11.50;99.90;;;;;;5043095;28;20204;-66
2022/04/23 01:02:54;;;;;;;21.67;16.27;;;11.50;99.90;;;;;;5034780;28;21256;-65
2022/04/23 01:05:24;;;;;;;21.97;16.83;;;11.50;99.90;;;;;;5041617;28;20199;-66
2022/04/23 01:07:53;;;;;;;23.77;16.27;;;11.50;99.90;;;;;;5037657;28;20201;-65
2022/04/23 01:10:21;;;;;;;25.27;16.83;;;11.50;99.90;;;;;;5038366;28;20220;-65
2022/04/23 01:12:50;;;;;;;20.27;16.10;;;11.50;99.90;;;;;;5044678;28;20259;-66
2022/04/23 01:15:20;;;;;;;25.33;16.67;;;11.50;99.90;;;;;;5038942;28;20209;-65
2022/04/23 01:17:50;;;;;;;24.30;17.03;;;11.50;99.90;;;;;;5035516;28;20208;-66
2022/04/23 01:20:20;;;;;;;22.27;16.37;;;11.50;99.90;;;;;;5043322;28;20267;-66
2022/04/23 01:22:49;;;;;;;23.03;16.47;;;11.50;99.90;;;;;;5042500;28;20201;-66
2022/04/23 01:25:18;;;;;;;21.93;16.00;;;11.40;99.90;;;;;;5042952;28;20197;-66
2022/04/23 01:27:46;;;;;;;22.70;16.67;;;11.40;99.90;;;;;;5041060;28;20276;-65
2022/04/23 01:30:15;;;;;;;23.83;16.73;;;11.40;99.90;;;;;;5039928;28;20193;-65
2022/04/23 01:32:43;;;;;;;24.43;17.53;;;11.40;99.90;;;;;;5020870;28;20236;-66
2022/04/23 01:35:11;;;;;;;24.10;15.77;;;11.40;99.90;;;;;;5042107;28;20564;-66
2022/04/23 01:37:43;;;;;;;24.33;17.20;;;11.40;99.90;;;;;;5041456;28;20235;-65
2022/04/23 01:40:12;;;;;;;20.93;16.63;;;11.30;99.90;;;;;;5041875;28;20211;-65
2022/04/23 01:42:41;;;;;;;22.97;17.47;;;11.30;99.90;;;;;;5038032;28;20220;-65
2022/04/23 01:45:09;;;;;;;25.83;17.43;;;11.30;99.90;;;;;;5039064;28;20283;-66
2022/04/23 01:47:38;;;;;;;23.10;16.97;;;11.20;99.90;;;;;;5038017;28;20224;-66
2022/04/23 01:50:08;;;;;;;22.87;17.27;;;11.30;99.90;;;;;;5042418;28;20198;-65
2022/04/23 01:52:37;;;;;;;26.47;17.70;;;11.30;99.90;;;;;;5038365;28;20243;-65
2022/04/23 01:55:08;;;;;;;26.67;18.67;;;11.20;99.90;;;;;;5037926;28;20221;-65
2022/04/23 01:57:36;;;;;;;24.87;18.43;;;11.20;99.90;;;;;;5049206;28;20192;-65
2022/04/23 02:00:06;;;;;;;27.57;19.47;;;11.20;99.90;;;;;;5044112;28;20220;-66
2022/04/23 02:02:36;;;;;;;28.17;19.13;;;11.20;99.90;;;;;;5044484;28;20193;-65
2022/04/23 02:05:06;;;;;;;26.70;18.37;;;11.30;99.90;;;;;;5046767;28;20385;-66
2022/04/23 02:07:37;;;;;;;28.93;19.60;;;11.30;99.90;;;;;;5042743;28;20538;-66
2022/04/23 02:10:09;;;;;;;28.70;19.33;;;11.30;99.90;;;;;;5043071;28;20209;-66
2022/04/23 02:12:38;;;;;;;23.90;17.80;;;11.30;99.90;;;;;;5048215;28;20213;-66
2022/04/23 02:15:13;;;;;;;27.63;19.00;;;11.30;99.90;;;;;;5049247;28;20783;-65
2022/04/23 02:17:44;;;;;;;28.67;19.27;;;11.30;99.90;;;;;;5046358;28;20232;-66
2022/04/23 02:20:13;;;;;;;32.53;19.57;;;11.30;99.90;;;;;;5046280;28;20200;-65
2022/04/23 02:22:43;;;;;;;27.37;20.03;;;11.30;99.90;;;;;;5039240;28;20231;-65
2022/04/23 02:25:13;;;;;;;26.07;19.40;;;11.30;99.90;;;;;;5045405;28;20246;-65
2022/04/23 02:27:43;;;;;;;29.93;20.87;;;11.30;99.90;;;;;;5043813;28;20291;-65
2022/04/23 02:30:13;;;;;;;26.90;20.50;;;11.30;99.90;;;;;;5039984;28;20197;-65
2022/04/23 02:32:42;;;;;;;27.37;20.57;;;11.30;99.90;;;;;;5042297;28;20240;-65
2022/04/23 02:35:12;;;;;;;30.23;20.87;;;11.30;99.90;;;;;;5044279;28;20193;-66
2022/04/23 02:37:45;;;;;;;25.80;20.60;;;11.30;99.90;;;;;;5063575;28;20482;-65
2022/04/23 02:40:17;;;;;;;30.27;20.43;;;11.30;99.90;;;;;;5043668;28;20197;-65
2022/04/23 02:42:46;;;;;;;28.40;20.50;;;11.30;99.90;;;;;;5042522;28;20189;-65
2022/04/23 02:45:15;;;;;;;28.73;21.07;;;11.30;99.90;;;;;;5038995;28;20197;-66
2022/04/23 02:47:45;;;;;;;29.23;20.87;;;11.30;99.90;;;;;;5046384;28;20199;-65
2022/04/23 02:50:16;;;;;;;29.13;20.93;;;11.30;99.90;;;;;;5041372;28;20236;-65
2022/04/23 02:52:44;;;;;;;34.77;22.77;;;11.30;99.90;;;;;;5045250;28;20783;-66
2022/04/23 02:55:14;;;;;;;29.70;21.33;;;11.30;99.90;;;;;;5045660;28;20204;-65
2022/04/23 02:57:43;;;;;;;33.07;22.83;;;11.30;99.90;;;;;;5047194;28;20216;-66
2022/04/23 03:00:12;;;;;;;31.33;22.27;;;11.30;99.90;;;;;;5041724;28;20258;-65
2022/04/23 03:02:41;;;;;;;32.57;22.63;;;11.30;99.90;;;;;;5036150;28;20193;-65
2022/04/23 03:05:12;;;;;;;32.83;22.07;;;11.30;99.90;;;;;;5040632;28;20228;-65
2022/04/23 03:07:40;;;;;;;31.23;22.10;;;11.30;99.90;;;;;;5039698;28;20211;-65
2022/04/23 03:10:11;;;;;;;32.00;22.63;;;11.30;99.90;;;;;;5045143;28;20350;-65
2022/04/23 03:12:41;;;;;;;29.93;21.73;;;11.20;99.90;;;;;;5041009;28;20311;-65
2022/04/23 03:15:14;;;;;;;30.77;22.70;;;11.30;99.90;;;;;;5038216;28;20204;-65
2022/04/23 03:17:43;;;;;;;29.63;22.03;;;11.20;99.90;;;;;;5046458;28;20582;-65
2022/04/23 03:20:13;;;;;;;36.23;22.90;;;11.20;99.90;;;;;;5041398;28;20200;-65
2022/04/23 03:22:42;;;;;;;31.07;22.73;;;11.20;99.90;;;;;;5038246;28;20885;-65
2022/04/23 03:25:12;;;;;;;29.87;21.93;;;11.10;99.90;;;;;;5043369;28;20283;-65
2022/04/23 03:27:42;;;;;;;32.50;23.00;;;11.10;99.90;;;;;;5042032;28;20204;-65
2022/04/23 03:30:10;;;;;;;29.40;22.70;;;11.10;99.90;;;;;;5040439;28;20212;-65
2022/04/23 03:32:39;;;;;;;29.97;22.57;;;11.10;99.90;;;;;;5043805;28;20293;-65
2022/04/23 03:35:08;;;;;;;33.87;22.80;;;11.00;99.90;;;;;;5045296;28;20197;-65
2022/04/23 03:37:39;;;;;;;31.70;22.97;;;11.00;99.90;;;;;;5035799;28;20204;-65
2022/04/23 03:40:09;;;;;;;32.13;23.47;;;11.00;99.90;;;;;;5045594;28;20189;-65
2022/04/23 03:42:38;;;;;;;34.93;23.17;;;11.00;99.90;;;;;;5039641;28;22322;-65
2022/04/23 03:45:10;;;;;;;32.67;22.77;;;10.90;99.90;;;;;;5044553;28;20275;-65
2022/04/23 03:47:44;;;;;;;31.60;21.97;;;11.00;99.90;;;;;;5045490;28;20188;-65
2022/04/23 03:50:13;;;;;;;31.90;22.63;;;10.90;99.90;;;;;;5052105;28;20219;-65
2022/04/23 03:52:42;;;;;;;35.30;23.97;;;10.90;99.90;;;;;;5044053;28;20892;-66
2022/04/23 03:55:13;;;;;;;30.67;22.93;;;10.90;99.90;;;;;;5043562;28;20561;-65
2022/04/23 03:57:46;;;;;;;29.63;22.40;;;10.90;99.90;;;;;;5044968;28;20196;-65
2022/04/23 04:00:20;;;;;;;32.83;22.83;;;10.90;99.90;;;;;;5043471;28;20672;-66
2022/04/23 04:03:13;;;;;;;30.77;22.73;;;10.90;99.90;;;;;;5044804;28;20185;-65
2022/04/23 04:05:42;;;;;;;35.13;23.60;;;10.90;99.90;;;;;;5041243;28;20565;-65
2022/04/23 04:08:12;;;;;;;32.70;23.50;;;10.90;99.90;;;;;;5042195;28;20446;-65
2022/04/23 04:10:40;;;;;;;31.50;24.10;;;10.90;99.90;;;;;;5041835;28;20197;-65
2022/04/23 04:13:09;;;;;;;32.97;23.13;;;10.90;99.90;;;;;;5041492;28;20516;-65
2022/04/23 04:15:40;;;;;;;31.77;23.23;;;10.90;99.90;;;;;;5037371;28;20304;-65
2022/04/23 04:18:08;;;;;;;43.73;24.03;;;10.90;99.90;;;;;;5044056;28;20485;-65
2022/04/23 04:20:37;;;;;;;31.13;22.83;;;10.90;99.90;;;;;;5038318;28;20589;-65
2022/04/23 04:23:05;;;;;;;30.40;23.00;;;10.90;99.90;;;;;;5038410;28;20203;-65
2022/04/23 04:25:35;;;;;;;32.80;23.43;;;10.90;99.90;;;;;;5042101;28;20550;-65
2022/04/23 04:28:04;;;;;;;36.37;23.37;;;10.90;99.90;;;;;;5038866;28;20485;-65
2022/04/23 04:31:47;;;;;;;34.77;23.43;;;10.90;99.90;;;;;;5039371;28;20284;-65
2022/04/23 04:33:22;;;;;;;32.00;22.90;;;10.90;99.90;;;;;;5039224;28;20611;-66
2022/04/23 04:35:50;;;;;;;32.57;22.10;;;10.90;99.90;;;;;;5039563;28;20275;-65
2022/04/23 04:38:23;;;;;;;34.57;23.27;;;10.90;99.90;;;;;;5043549;28;20216;-65
2022/04/23 04:40:51;;;;;;;30.93;22.07;;;10.90;99.90;;;;;;5041670;28;20709;-65
2022/04/23 04:43:20;;;;;;;31.37;22.90;;;10.90;99.90;;;;;;5040280;28;20655;-65
2022/04/23 04:45:48;;;;;;;33.00;23.77;;;10.90;99.90;;;;;;5039575;28;20203;-65
2022/04/23 04:48:17;;;;;;;35.80;24.00;;;10.90;99.90;;;;;;5039331;28;20197;-66
2022/04/23 04:50:46;;;;;;;32.83;22.90;;;10.90;99.90;;;;;;5038989;28;20312;-66
2022/04/23 04:53:15;;;;;;;33.93;23.03;;;10.90;99.90;;;;;;5044051;28;20379;-66
2022/04/23 04:55:46;;;;;;;35.57;24.17;;;10.80;99.90;;;;;;5041877;28;20278;-66
2022/04/23 04:58:14;;;;;;;31.97;23.93;;;10.80;99.90;;;;;;5040550;28;20583;-66
2022/04/23 05:00:43;;;;;;;32.03;23.23;;;10.80;99.90;;;;;;5040810;28;20235;-66
2022/04/23 05:03:12;;;;;;;34.53;23.17;;;10.80;99.90;;;;;;5040207;28;20212;-65
2022/04/23 05:05:44;;;;;;;35.53;23.93;;;10.80;99.90;;;;;;5039274;28;20200;-66
2022/04/23 05:08:14;;;;;;;33.87;23.70;;;10.80;99.90;;;;;;5041836;28;20209;-66
2022/04/23 05:10:43;;;;;;;31.13;22.43;;;10.80;99.90;;;;;;5041630;28;20643;-66
2022/04/23 05:13:11;;;;;;;33.30;24.30;;;10.80;99.90;;;;;;5040338;28;20201;-65
2022/04/23 05:15:40;;;;;;;32.67;23.47;;;10.80;99.90;;;;;;5038442;28;20220;-65
2022/04/23 05:18:08;;;;;;;35.43;23.30;;;10.80;99.90;;;;;;5039171;28;20295;-65
2022/04/23 05:20:37;;;;;;;34.60;22.90;;;10.80;99.90;;;;;;5038703;28;20227;-66
2022/04/23 05:23:06;;;;;;;32.43;23.53;;;10.90;99.90;;;;;;5035868;28;20432;-65
2022/04/23 05:25:36;;;;;;;32.07;22.23;;;11.00;99.90;;;;;;5036476;28;20196;-65
2022/04/23 05:28:05;;;;;;;34.47;22.80;;;11.00;99.90;;;;;;5038593;28;20209;-66
2022/04/23 05:30:37;;;;;;;32.70;22.87;;;11.10;99.90;;;;;;5039064;28;20205;-65
2022/04/23 05:33:05;;;;;;;31.67;22.40;;;11.20;99.90;;;;;;5042044;28;20921;-65
2022/04/23 05:35:34;;;;;;;33.03;22.63;;;11.20;99.90;;;;;;5044798;28;20251;-65
2022/04/23 05:38:03;;;;;;;34.13;23.07;;;11.20;99.90;;;;;;5045066;28;20193;-65
2022/04/23 05:40:31;;;;;;;32.33;22.57;;;11.30;99.90;;;;;;5039831;28;20343;-66
2022/04/23 05:43:01;;;;;;;37.13;23.20;;;11.40;99.90;;;;;;5042594;28;20289;-66
2022/04/23 05:45:31;;;;;;;30.07;21.77;;;11.40;99.90;;;;;;5047559;28;20205;-65
2022/04/23 05:47:59;;;;;;;31.33;22.63;;;11.50;99.90;;;;;;5041314;28;20205;-66
2022/04/23 05:50:28;;;;;;;32.10;22.23;;;11.60;99.90;;;;;;5046201;28;20203;-65
2022/04/23 05:52:56;;;;;;;32.67;22.03;;;11.60;99.90;;;;;;5047865;28;20219;-66
2022/04/23 05:55:25;;;;;;;32.80;22.93;;;11.60;99.90;;;;;;5041138;28;20398;-66
2022/04/23 05:57:53;;;;;;;33.23;22.47;;;11.60;99.90;;;;;;5042791;28;20212;-65
2022/04/23 06:00:23;;;;;;;30.07;21.80;;;11.80;99.90;;;;;;5044077;28;20294;-66
2022/04/23 06:02:52;;;;;;;28.90;21.37;;;12.00;99.90;;;;;;5045644;28;20284;-66
2022/04/23 06:05:21;;;;;;;29.37;20.77;;;12.10;99.90;;;;;;5046893;28;20193;-66
2022/04/23 06:07:49;;;;;;;31.73;22.07;;;12.30;99.90;;;;;;5047071;28;20205;-66
2022/04/23 06:10:18;;;;;;;28.60;21.17;;;12.40;99.90;;;;;;5046792;28;20200;-66
2022/04/23 06:12:46;;;;;;;31.63;21.90;;;12.70;99.90;;;;;;5046241;28;20204;-65
2022/04/23 06:15:15;;;;;;;27.97;19.60;;;12.80;99.90;;;;;;5039769;28;20209;-65
2022/04/23 06:17:45;;;;;;;29.37;21.67;;;12.90;99.90;;;;;;5043366;28;20232;-65
2022/04/23 06:20:14;;;;;;;29.73;21.80;;;13.00;99.90;;;;;;5044365;28;20228;-66
2022/04/23 06:22:43;;;;;;;30.73;22.20;;;13.10;99.90;;;;;;5044287;28;20197;-65
2022/04/23 06:25:11;;;;;;;28.63;21.70;;;13.10;99.90;;;;;;5038105;28;20377;-66
2022/04/23 06:27:40;;;;;;;29.33;21.60;;;13.00;99.90;;;;;;5044679;28;20271;-65
2022/04/23 06:30:09;;;;;;;29.03;20.87;;;13.00;99.90;;;;;;5043380;28;20445;-66
2022/04/23 06:32:39;;;;;;;30.60;21.10;;;13.10;99.90;;;;;;5044158;28;20231;-65
2022/04/23 06:35:09;;;;;;;29.53;21.53;;;13.10;99.90;;;;;;5042821;28;20314;-65
2022/04/23 06:37:40;;;;;;;32.87;21.77;;;13.10;99.90;;;;;;5039273;28;20232;-65
2022/04/23 06:40:11;;;;;;;28.20;21.50;;;13.10;99.90;;;;;;5040289;28;20192;-66
2022/04/23 06:42:41;;;;;;;25.33;20.00;;;13.30;99.90;;;;;;5042930;28;20671;-66
2022/04/23 06:45:10;;;;;;;25.47;19.90;;;13.50;99.90;;;;;;5036937;28;20220;-66
2022/04/23 06:47:39;;;;;;;27.40;19.97;;;13.50;99.90;;;;;;5042202;28;20575;-65
2022/04/23 06:50:10;;;;;;;26.27;20.20;;;13.80;99.90;;;;;;5041135;28;20205;-66
2022/04/23 06:52:38;;;;;;;35.47;20.90;;;13.80;99.90;;;;;;5043754;28;20205;-65
2022/04/23 06:55:08;;;;;;;29.13;21.90;;;13.80;99.90;;;;;;5036497;28;20219;-66
2022/04/23 06:57:44;;;;;;;28.20;19.27;;;13.80;99.90;;;;;;5033582;28;20537;-66
2022/04/23 07:00:13;;;;;;;28.10;20.03;;;13.80;99.90;;;;;;5039783;28;20209;-65
2022/04/23 07:02:41;;;;;;;25.73;19.50;;;14.00;99.90;;;;;;5036682;28;20206;-65
2022/04/23 07:05:12;;;;;;;28.30;19.43;;;14.00;99.90;;;;;;5035197;28;20250;-65
2022/04/23 07:07:41;;;;;;;25.13;19.93;;;13.90;99.90;;;;;;5038645;28;20236;-65
2022/04/23 07:10:09;;;;;;;28.20;19.90;;;13.90;99.90;;;;;;5039354;28;20208;-66
2022/04/23 07:12:38;;;;;;;27.63;20.00;;;14.10;99.90;;;;;;5039995;28;20284;-66
2022/04/23 07:15:08;;;;;;;33.93;19.77;;;14.50;99.90;;;;;;5039887;28;20338;-66
2022/04/23 07:17:36;;;;;;;23.80;19.17;;;14.70;99.90;;;;;;5036960;28;20191;-66
2022/04/23 07:20:05;;;;;;;27.23;18.63;;;14.80;99.90;;;;;;5040148;28;20207;-66
2022/04/23 07:22:35;;;;;;;25.90;17.93;;;14.80;99.90;;;;;;5039189;28;20696;-66
2022/04/23 07:25:03;;;;;;;25.87;19.73;;;14.90;99.90;;;;;;5038134;28;20203;-65
2022/04/23 07:27:32;;;;;;;24.97;18.27;;;15.00;99.90;;;;;;5033258;28;20285;-65
2022/04/23 07:30:01;;;;;;;25.03;18.67;;;14.90;99.90;;;;;;5036063;28;20213;-65
2022/04/23 07:32:29;;;;;;;28.47;18.23;;;14.90;99.90;;;;;;5036329;28;20207;-65
2022/04/23 07:37:45;;;;;;;27.63;19.20;;;15.30;99.90;;;;;;5036415;28;20229;-65
2022/04/23 07:40:13;;;;;;;28.30;18.80;;;15.50;99.90;;;;;;5038030;28;20197;-66
2022/04/23 07:42:41;;;;;;;23.40;17.80;;;15.60;99.90;;;;;;5037084;28;20285;-65
2022/04/23 07:45:10;;;;;;;26.40;17.97;;;15.70;99.90;;;;;;5039391;28;20286;-66
2022/04/23 07:47:39;;;;;;;23.40;17.57;;;15.90;99.90;;;;;;5033426;28;20287;-66
2022/04/23 07:50:08;;;;;;;22.93;18.23;;;16.00;99.90;;;;;;5038122;28;20227;-66
2022/04/23 07:52:38;;;;;;;23.07;17.40;;;16.10;99.90;;;;;;5038219;28;20214;-66
2022/04/23 07:55:09;;;;;;;23.13;17.50;;;16.10;99.90;;;;;;5037800;28;20359;-66
2022/04/23 07:57:37;;;;;;;23.33;18.17;;;16.30;99.90;;;;;;5036774;28;20284;-66
2022/04/23 08:00:08;;;;;;;20.30;16.93;;;16.30;99.90;;;;;;5039998;28;20712;-66
2022/04/23 08:02:36;;;;;;;22.40;17.13;;;16.40;99.90;;;;;;5037766;28;20678;-66
2022/04/23 08:05:06;;;;;;;22.03;17.17;;;16.70;99.90;;;;;;5036671;28;20196;-66
2022/04/23 08:07:34;;;;;;;21.90;17.17;;;16.90;99.90;;;;;;5033722;28;20193;-66
2022/04/23 08:10:03;;;;;;;27.00;17.40;;;17.20;99.90;;;;;;5040211;28;20201;-65
2022/04/23 08:12:35;;;;;;;22.27;16.80;;;17.30;99.90;;;;;;5036206;28;20282;-66
2022/04/23 08:15:03;;;;;;;21.70;16.73;;;17.40;99.90;;;;;;5037712;28;20288;-66
2022/04/23 08:17:32;;;;;;;22.27;16.40;;;17.50;99.90;;;;;;5037389;28;20227;-66
2022/04/23 08:20:01;;;;;;;18.83;16.13;;;17.60;99.90;;;;;;5039725;28;20193;-66
2022/04/23 08:22:30;;;;;;;18.97;16.30;;;17.80;99.90;;;;;;5037770;28;20188;-65
2022/04/23 08:24:58;;;;;;;22.07;17.20;;;17.80;99.90;;;;;;5036323;28;20207;-66
2022/04/23 08:27:26;;;;;;;21.43;16.97;;;18.00;99.90;;;;;;5038982;28;20199;-66
2022/04/23 08:32:42;;;;;;;19.03;16.00;;;18.50;99.90;;;;;;5035336;28;20240;-66
2022/04/23 08:35:10;;;;;;;21.40;16.73;;;18.40;99.90;;;;;;5033121;28;20202;-67
2022/04/23 08:37:39;;;;;;;21.20;16.70;;;18.50;99.90;;;;;;5034844;28;20197;-66
2022/04/23 08:40:10;;;;;;;19.33;16.40;;;18.90;99.90;;;;;;5042724;28;20196;-66
2022/04/23 08:42:39;;;;;;;21.17;16.13;;;19.00;99.90;;;;;;5036918;28;20199;-66
2022/04/23 08:45:12;;;;;;;19.90;15.97;;;19.10;99.90;;;;;;5029756;28;20201;-66
2022/04/23 08:47:45;;;;;;;18.17;15.90;;;19.20;99.90;;;;;;5035913;28;20771;-66
2022/04/23 08:50:13;;;;;;;19.73;16.10;;;19.30;99.90;;;;;;5039127;28;20288;-66
2022/04/23 08:52:43;;;;;;;20.57;15.90;;;19.50;99.90;;;;;;5040872;28;20203;-66
2022/04/23 08:55:14;;;;;;;18.87;15.67;;;19.50;99.90;;;;;;5035092;28;20283;-66
2022/04/23 08:57:44;;;;;;;19.83;15.57;;;19.60;99.90;;;;;;5039845;28;21269;-66
2022/04/23 09:00:16;;;;;;;18.97;16.10;;;19.90;99.90;;;;;;5033350;28;20213;-66
2022/04/23 09:02:45;;;;;;;23.53;16.93;;;20.00;99.90;;;;;;5035171;28;20232;-67
2022/04/23 09:05:15;;;;;;;20.90;16.07;;;19.80;99.90;;;;;;5034177;28;20208;-66
2022/04/23 09:07:53;;;;;;;18.37;15.60;;;19.80;99.90;;;;;;5036187;28;20738;-67
2022/04/23 09:10:43;;;;;;;22.53;16.17;;;20.10;99.90;;;;;;5043869;28;20272;-67
2022/04/23 09:13:11;;;;;;;21.03;15.97;;;20.40;99.90;;;;;;5033648;28;20664;-66
2022/04/23 09:24:18;;;;;;;19.70;15.67;;;21.10;99.90;;;;;;5029182;28;20199;-66
2022/04/23 09:27:05;;;;;;;18.03;14.97;;;21.40;99.90;;;;;;5036287;28;20653;-66
2022/04/23 09:29:33;;;;;;;16.87;15.00;;;21.50;99.90;;;;;;5034507;28;20208;-67
2022/04/23 09:32:16;;;;;;;18.73;14.83;;;21.90;99.90;;;;;;5034618;28;20654;-67
2022/04/23 09:34:44;;;;;;;18.37;14.00;;;21.90;99.90;;;;;;5029427;28;20677;-66
2022/04/23 09:37:12;;;;;;;18.00;15.77;;;22.30;99.90;;;;;;5037148;28;20570;-66
2022/04/23 09:39:40;;;;;;;17.50;15.07;;;22.50;99.90;;;;;;5034495;28;20201;-66
2022/04/23 09:42:13;;;;;;;18.80;16.53;;;22.40;99.90;;;;;;5034826;28;20214;-66
2022/04/23 09:44:43;;;;;;;19.60;15.77;;;22.10;99.90;;;;;;5034272;28;20198;-66
2022/04/23 09:47:29;;;;;;;18.10;14.80;;;22.10;99.90;;;;;;5038369;28;20207;-67
2022/04/23 09:49:58;;;;;;;18.00;14.97;;;22.50;99.90;;;;;;5035736;28;20271;-66
2022/04/23 09:52:29;;;;;;;16.50;14.80;;;22.60;99.90;;;;;;5039054;28;20201;-67
2022/04/23 09:55:21;;;;;;;20.20;15.87;;;22.40;99.90;;;;;;5040892;28;20562;-66
2022/04/23 09:57:51;;;;;;;17.47;15.67;;;22.40;99.90;;;;;;5038095;28;20662;-66
2022/04/23 10:00:20;;;;;;;17.87;15.23;;;22.10;99.90;;;;;;5038383;28;20195;-65
2022/04/23 10:03:12;;;;;;;17.60;15.53;;;22.20;99.90;;;;;;5038793;28;20390;-65
2022/04/23 10:06:20;;;;;;;18.00;14.80;;;22.80;99.90;;;;;;5042147;28;20231;-65
2022/04/23 10:08:51;;;;;;;19.70;14.83;;;23.00;99.90;;;;;;5035523;28;20194;-65
2022/04/23 10:11:24;;;;;;;16.93;15.17;;;23.00;99.90;;;;;;5053160;28;20204;-66
2022/04/23 10:13:56;;;;;;;18.17;14.67;;;23.00;99.90;;;;;;5037340;28;20211;-65
2022/04/23 10:16:25;;;;;;;17.60;15.57;;;23.40;99.90;;;;;;5043442;28;20217;-66
2022/04/23 10:18:56;;;;;;;17.40;15.40;;;22.90;99.90;;;;;;5037127;28;20197;-65
2022/04/23 10:21:31;;;;;;;17.60;14.43;;;22.90;99.90;;;;;;5045958;28;20208;-65
2022/04/23 10:24:06;;;;;;;19.07;14.50;;;23.50;99.90;;;;;;5039690;28;20198;-65
2022/04/23 10:26:44;;;;;;;14.80;13.30;;;23.40;99.90;;;;;;5038421;28;20194;-65
2022/04/23 10:29:15;;;;;;;17.40;14.43;;;23.70;99.90;;;;;;5035538;28;20327;-65
2022/04/23 10:31:44;;;;;;;18.53;14.87;;;23.70;99.90;;;;;;5039067;28;20205;-65
2022/04/23 10:34:42;;;;;;;15.97;14.27;;;23.60;99.90;;;;;;5038173;28;20225;-66
2022/04/23 10:37:21;;;;;;;15.80;14.10;;;23.80;99.90;;;;;;5005579;28;20590;-67
2022/04/23 10:40:16;;;;;;;17.33;15.40;;;23.90;99.90;;;;;;5030524;28;20205;-66
2022/04/23 10:43:09;;;;;;;18.27;13.90;;;23.70;99.90;;;;;;5034828;28;20270;-66
2022/04/23 10:45:39;;;;;;;16.50;13.53;;;23.90;99.90;;;;;;5036398;28;20201;-67
2022/04/23 10:48:24;;;;;;;19.47;14.07;;;23.90;99.90;;;;;;5031518;28;20248;-66
2022/04/23 10:51:21;;;;;;;17.00;14.60;;;23.60;99.90;;;;;;5034911;28;20196;-66
2022/04/23 10:53:55;;;;;;;15.53;13.80;;;23.70;99.90;;;;;;5034009;28;20227;-66
2022/04/23 10:56:26;;;;;;;15.87;12.57;;;23.50;99.90;;;;;;5050483;28;20745;-66
2022/04/23 10:58:54;;;;;;;18.80;13.97;;;23.60;99.90;;;;;;5038874;28;20201;-67
2022/04/23 11:01:29;;;;;;;17.10;14.77;;;24.00;99.90;;;;;;5037220;28;20616;-66
2022/04/23 11:04:11;;;;;;;15.97;14.20;;;23.60;99.90;;;;;;5037705;28;20288;-66
2022/04/23 11:12:37;;;;;;;15.40;13.80;;;23.00;99.90;;;;;;4999549;28;20305;-66
2022/04/23 11:15:18;;;;;;;18.40;14.83;;;22.90;99.90;;;;;;5034520;28;20673;-66
2022/04/23 11:17:53;;;;;;;17.17;14.03;;;23.20;99.90;;;;;;5042188;28;20210;-66
2022/04/23 11:20:29;;;;;;;15.83;13.57;;;23.20;99.90;;;;;;5038719;28;20286;-66
2022/04/23 11:23:01;;;;;;;20.73;14.60;;;23.10;99.90;;;;;;5039330;28;20202;-66
2022/04/23 11:25:31;;;;;;;18.30;14.47;;;23.30;99.90;;;;;;5036961;28;20279;-65
2022/04/23 11:28:13;;;;;;;18.53;14.57;;;22.90;99.90;;;;;;5032050;28;20200;-64
2022/04/23 11:30:41;;;;;;;18.07;13.93;;;22.30;99.90;;;;;;5030018;28;20209;-65
2022/04/23 11:33:11;;;;;;;18.47;13.97;;;22.10;99.90;;;;;;5039326;28;20315;-65
2022/04/23 11:35:39;;;;;;;15.60;14.00;;;22.00;99.90;;;;;;5034816;28;20211;-64
2022/04/23 11:38:21;;;;;;;19.33;14.17;;;21.90;99.90;;;;;;5040650;28;20232;-65
2022/04/23 11:40:49;;;;;;;17.60;14.13;;;21.80;99.90;;;;;;5041768;28;20200;-66
2022/04/23 11:43:31;;;;;;;18.67;14.80;;;21.70;99.90;;;;;;5043345;28;20197;-65
2022/04/23 11:46:07;;;;;;;16.57;13.20;;;21.60;99.90;;;;;;5034037;28;20196;-65
2022/04/23 11:48:44;;;;;;;17.67;13.47;;;21.60;99.90;;;;;;5044179;28;20199;-65
2022/04/23 11:51:13;;;;;;;15.73;13.97;;;22.10;99.90;;;;;;5028122;28;20192;-65
2022/04/23 11:53:58;;;;;;;14.30;12.90;;;22.20;99.90;;;;;;5037033;28;20279;-64
2022/04/23 11:56:32;;;;;;;17.00;13.40;;;22.30;99.90;;;;;;5038492;28;20201;-64
2022/04/23 11:59:04;;;;;;;16.60;13.40;;;21.80;99.90;;;;;;5039978;28;20256;-65
2022/04/23 12:01:32;;;;;;;20.03;13.00;;;21.80;99.90;;;;;;5034913;28;20787;-65
2022/04/23 12:04:01;;;;;;;17.27;12.53;;;21.70;99.90;;;;;;5040267;28;20212;-66
2022/04/23 12:06:43;;;;;;;13.87;12.50;;;21.40;99.90;;;;;;5037160;28;20208;-64
2022/04/23 12:09:13;;;;;;;15.63;13.47;;;21.10;99.90;;;;;;5036702;28;20245;-65
2022/04/23 12:11:42;;;;;;;16.80;12.50;;;21.40;99.90;;;;;;5030325;28;20295;-64
2022/04/23 12:14:10;;;;;;;25.03;13.60;;;21.40;99.90;;;;;;5034708;28;20666;-64
2022/04/23 12:16:41;;;;;;;15.80;13.17;;;21.40;99.90;;;;;;5039054;28;20202;-64
2022/04/23 12:19:12;;;;;;;14.97;13.13;;;21.50;99.90;;;;;;5035808;28;20213;-65
2022/04/23 12:21:56;;;;;;;14.70;13.10;;;21.80;99.90;;;;;;5039788;28;20196;-65
2022/04/23 12:24:33;;;;;;;16.90;13.43;;;21.70;99.90;;;;;;5033838;28;20230;-64
2022/04/23 12:27:02;;;;;;;14.33;12.30;;;21.80;99.90;;;;;;5040733;28;20224;-65
2022/04/23 12:40:53;;;;;;;13.57;11.10;;;21.10;99.90;;;;;;5030271;28;20209;-64
2022/04/23 12:43:28;;;;;;;14.97;12.77;;;21.40;99.90;;;;;;5038695;28;20594;-65
2022/04/23 12:46:08;;;;;;;16.13;11.70;;;21.90;99.90;;;;;;5040925;28;20220;-64
2022/04/23 12:48:55;;;;;;;11.70;10.50;;;22.20;99.90;;;;;;5036105;28;20189;-65
2022/04/23 12:51:24;;;;;;;15.53;12.10;;;22.20;99.90;;;;;;5034208;28;20228;-64
2022/04/23 12:53:52;;;;;;;17.93;11.83;;;21.90;99.90;;;;;;5033835;28;20225;-65
2022/04/23 12:56:34;;;;;;;14.83;11.27;;;21.60;99.90;;;;;;5037442;28;20193;-65
2022/04/23 12:59:05;;;;;;;16.50;10.93;;;21.70;99.90;;;;;;5033273;28;20231;-64
2022/04/23 13:01:33;;;;;;;18.07;11.30;;;21.70;99.90;;;;;;5036820;28;20192;-64
2022/04/23 13:04:03;;;;;;;15.43;11.10;;;21.50;99.90;;;;;;5029002;28;20726;-63
2022/04/23 13:09:17;;;;;;;13.87;11.23;;;21.10;99.90;;;;;;5034633;28;20197;-66
2022/04/23 13:11:47;;;;;;;12.10;10.87;;;21.10;99.90;;;;;;5032973;28;20211;-72
2022/04/23 13:14:16;;;;;;;14.00;11.17;;;21.30;99.90;;;;;;5032717;28;20203;-72
2022/04/23 13:16:45;;;;;;;12.43;10.17;;;21.40;99.90;;;;;;5034023;28;20204;-71
2022/04/23 13:19:20;;;;;;;12.50;11.20;;;21.30;99.90;;;;;;5038416;28;20906;-69
2022/04/23 13:21:49;;;;;;;11.23;9.67;;;21.40;99.90;;;;;;5031696;28;20897;-70